Time;durP1;ratioP1;P1;durP2;ratioP2;P2;SDS_P1;SDS_P2;PMS_P1;PMS_P2;Temp;Humidity;BMP_temperature;BMP_pressure;BME280_temperature;BME280_humidity;BME280_pressure;Samples;Min_cycle;Max_cycle;Signal;HPM_P1;HPM_P2
2023/04/06 00:02:13;;;;;;;21.63;12.95;;;-0.40;99.90;;;;;;6096461;23;20345;-93
2023/04/06 00:05:00;;;;;;;18.95;12.25;;;-0.40;99.90;;;;;;6096789;23;20022;-93
2023/04/06 00:07:48;;;;;;;18.35;11.15;;;-0.40;99.90;;;;;;6095278;23;20022;-91
2023/04/06 00:10:37;;;;;;;17.98;11.98;;;-0.40;99.90;;;;;;6097899;23;20026;-92
2023/04/06 00:13:25;;;;;;;24.00;14.60;;;-0.40;99.90;;;;;;6096119;23;20022;-94
2023/04/06 00:16:13;;;;;;;27.13;14.93;;;-0.60;99.90;;;;;;6096765;23;20477;-92
2023/04/06 00:19:00;;;;;;;25.80;14.38;;;-0.70;99.90;;;;;;6096583;23;20034;-91
2023/04/06 00:21:48;;;;;;;23.95;14.23;;;-0.70;99.90;;;;;;6099334;23;20326;-93
2023/04/06 00:24:35;;;;;;;25.52;15.63;;;-0.80;99.90;;;;;;6116285;23;20010;-89
2023/04/06 00:27:24;;;;;;;26.02;14.80;;;-0.90;99.90;;;;;;6116843;23;20014;-89
2023/04/06 00:30:12;;;;;;;27.88;14.95;;;-1.10;99.90;;;;;;6104341;23;20030;-93
2023/04/06 00:33:01;;;;;;;24.80;13.60;;;-1.10;99.90;;;;;;6097616;23;20428;-93
2023/04/06 00:35:55;;;;;;;23.27;14.50;;;-1.20;99.90;;;;;;6097969;23;20054;-94
2023/04/06 00:38:45;;;;;;;22.77;14.38;;;-1.30;99.90;;;;;;6076013;23;20030;-92
2023/04/06 00:41:33;;;;;;;22.65;13.35;;;-1.20;99.90;;;;;;6099947;23;20034;-92
2023/04/06 00:44:21;;;;;;;21.45;13.35;;;-1.30;99.90;;;;;;6105345;23;20054;-93
2023/04/06 00:47:09;;;;;;;19.45;11.48;;;-1.20;99.90;;;;;;6111382;23;20022;-92
2023/04/06 00:49:57;;;;;;;21.50;13.93;;;-1.10;99.90;;;;;;6107813;23;20026;-92
2023/04/06 00:52:44;;;;;;;27.77;13.05;;;-1.00;99.90;;;;;;6095744;23;20076;-94
2023/04/06 00:55:32;;;;;;;26.15;15.82;;;-0.80;99.90;;;;;;6103011;23;20030;-90
2023/04/06 00:58:19;;;;;;;20.55;12.48;;;-0.70;99.90;;;;;;6100505;23;20065;-91
2023/04/06 01:01:06;;;;;;;21.58;12.95;;;-0.70;99.90;;;;;;6099647;23;20038;-91
2023/04/06 01:03:55;;;;;;;19.10;11.63;;;-0.70;99.90;;;;;;6099667;23;20322;-90
2023/04/06 01:06:42;;;;;;;23.77;12.15;;;-0.70;99.90;;;;;;6098682;23;20022;-89
2023/04/06 01:09:30;;;;;;;19.08;11.88;;;-0.80;99.90;;;;;;6096877;23;20035;-88
2023/04/06 01:12:18;;;;;;;20.33;12.27;;;-0.90;99.90;;;;;;6095688;23;20038;-91
2023/04/06 01:15:07;;;;;;;28.90;13.60;;;-1.00;99.90;;;;;;6094535;23;20027;-89
2023/04/06 01:17:54;;;;;;;24.50;13.77;;;-1.00;99.90;;;;;;6094692;23;20027;-91
2023/04/06 01:20:43;;;;;;;25.40;13.43;;;-1.00;99.90;;;;;;6095729;23;20033;-91
2023/04/06 01:23:31;;;;;;;24.98;12.70;;;-1.00;99.90;;;;;;6096173;23;20113;-90
2023/04/06 01:26:18;;;;;;;17.25;11.32;;;-1.10;99.90;;;;;;6095272;23;20053;-91
2023/04/06 01:29:05;;;;;;;24.90;11.13;;;-1.10;99.90;;;;;;6095031;23;20052;-90
2023/04/06 01:31:53;;;;;;;21.23;12.93;;;-1.20;99.90;;;;;;6095494;23;20034;-92
2023/04/06 01:34:41;;;;;;;22.63;12.23;;;-1.20;99.90;;;;;;6096175;23;20031;-92
2023/04/06 01:37:31;;;;;;;16.77;11.40;;;-1.20;99.90;;;;;;6096504;23;20037;-92
2023/04/06 01:40:20;;;;;;;17.63;11.75;;;-1.20;99.90;;;;;;6093149;23;20036;-90
2023/04/06 01:43:07;;;;;;;21.25;13.35;;;-1.20;99.90;;;;;;6094618;23;20045;-92
2023/04/06 01:45:58;;;;;;;22.95;13.25;;;-1.10;99.90;;;;;;6095621;23;20100;-92
2023/04/06 01:48:45;;;;;;;21.67;13.13;;;-1.10;99.90;;;;;;6077490;23;20341;-92
2023/04/06 01:51:32;;;;;;;17.60;12.20;;;-1.10;99.90;;;;;;6096182;23;20030;-91
2023/04/06 01:54:23;;;;;;;22.27;12.10;;;-1.10;99.90;;;;;;6094529;23;20026;-91
2023/04/06 01:57:13;;;;;;;18.67;12.63;;;-1.10;99.90;;;;;;6094494;23;20092;-90
2023/04/06 02:00:01;;;;;;;19.60;12.65;;;-1.10;99.90;;;;;;6096903;23;20027;-89
2023/04/06 02:02:48;;;;;;;21.17;12.95;;;-1.10;99.90;;;;;;6095298;23;20026;-92
2023/04/06 02:05:37;;;;;;;18.83;12.00;;;-1.10;99.90;;;;;;6097358;23;20027;-89
2023/04/06 02:08:27;;;;;;;22.40;13.35;;;-1.10;99.90;;;;;;6095203;23;20038;-91
2023/04/06 02:11:17;;;;;;;19.00;12.20;;;-1.30;99.90;;;;;;6100907;23;20033;-92
2023/04/06 02:14:06;;;;;;;26.23;12.30;;;-1.30;99.90;;;;;;6097071;23;20421;-90
2023/04/06 02:16:53;;;;;;;18.95;12.30;;;-1.40;99.90;;;;;;6098730;23;20030;-91
2023/04/06 02:19:50;;;;;;;20.70;12.38;;;-1.40;99.90;;;;;;6108804;23;20086;-88
2023/04/06 02:22:48;;;;;;;18.17;12.15;;;-1.50;99.90;;;;;;6099590;23;20064;-89
2023/04/06 02:25:35;;;;;;;23.10;13.23;;;-1.50;99.90;;;;;;6111593;23;20037;-89
2023/04/06 02:28:22;;;;;;;24.52;14.27;;;-1.70;99.90;;;;;;6105027;23;20023;-90
2023/04/06 02:31:11;;;;;;;22.23;14.20;;;-1.90;99.90;;;;;;6094842;23;20026;-92
2023/04/06 02:34:01;;;;;;;25.77;14.23;;;-1.90;99.90;;;;;;6098711;23;20038;-90
2023/04/06 02:36:48;;;;;;;26.42;14.65;;;-1.90;99.90;;;;;;6095196;23;20080;-92
2023/04/06 02:39:39;;;;;;;25.98;14.98;;;-1.90;99.90;;;;;;6095557;23;20492;-90
2023/04/06 02:42:29;;;;;;;23.58;13.63;;;-1.90;99.90;;;;;;6093944;23;20030;-91
2023/04/06 02:45:16;;;;;;;23.55;13.45;;;-1.80;99.90;;;;;;6096983;23;20092;-90
2023/04/06 02:48:04;;;;;;;23.20;13.68;;;-1.60;99.90;;;;;;6093994;23;20022;-92
2023/04/06 02:50:58;;;;;;;24.65;14.00;;;-1.60;99.90;;;;;;6098078;23;20670;-88
2023/04/06 02:53:46;;;;;;;22.50;13.60;;;-1.50;99.90;;;;;;6095551;23;20081;-89
2023/04/06 02:56:33;;;;;;;24.83;13.10;;;-1.40;99.90;;;;;;6098482;23;20030;-90
2023/04/06 02:59:20;;;;;;;22.10;13.52;;;-1.30;99.90;;;;;;6093567;23;20039;-91
2023/04/06 03:02:12;;;;;;;26.80;13.75;;;-1.30;99.90;;;;;;6097775;23;20031;-92
2023/04/06 03:05:00;;;;;;;22.50;13.07;;;-1.20;99.90;;;;;;6072914;23;20449;-92
2023/04/06 03:07:49;;;;;;;21.95;13.50;;;-1.20;99.90;;;;;;6094828;23;20041;-91
2023/04/06 03:10:36;;;;;;;17.90;12.10;;;-1.20;99.90;;;;;;6092902;23;20098;-92
2023/04/06 03:13:24;;;;;;;28.50;13.80;;;-1.30;99.90;;;;;;6094388;23;20026;-91
2023/04/06 03:16:11;;;;;;;23.70;14.48;;;-1.40;99.90;;;;;;6099398;23;20108;-91
2023/04/06 03:18:59;;;;;;;20.65;13.20;;;-1.50;99.90;;;;;;6092267;23;20022;-92
2023/04/06 03:21:47;;;;;;;23.55;14.35;;;-1.70;99.90;;;;;;6094130;23;20026;-94
2023/04/06 03:24:34;;;;;;;22.55;14.52;;;-1.80;99.90;;;;;;6096223;23;20022;-92
2023/04/06 03:27:22;;;;;;;28.25;15.32;;;-1.90;99.90;;;;;;6096296;23;20030;-92
2023/04/06 03:30:10;;;;;;;25.77;14.27;;;-2.00;99.90;;;;;;6096944;23;20034;-91
2023/04/06 03:32:57;;;;;;;21.90;14.57;;;-2.10;99.90;;;;;;6101935;23;20022;-91
2023/04/06 03:35:44;;;;;;;28.75;16.10;;;-2.20;99.90;;;;;;6097655;23;20026;-90
2023/04/06 03:38:49;;;;;;;27.77;15.02;;;-2.20;99.90;;;;;;6101339;23;20023;-92
2023/04/06 03:41:36;;;;;;;28.15;15.27;;;-2.20;99.90;;;;;;6107227;23;20389;-92
2023/04/06 03:44:25;;;;;;;26.90;15.25;;;-2.20;99.90;;;;;;6113506;23;20014;-90
2023/04/06 03:47:15;;;;;;;24.00;14.80;;;-2.20;99.90;;;;;;6111245;23;20913;-89
2023/04/06 03:50:05;;;;;;;25.15;15.27;;;-2.20;99.90;;;;;;6098513;23;20436;-90
2023/04/06 03:52:52;;;;;;;24.70;15.70;;;-2.30;99.90;;;;;;6099640;23;20030;-89
2023/04/06 03:55:42;;;;;;;22.60;14.70;;;-2.40;99.90;;;;;;6096533;23;20022;-91
2023/04/06 03:58:29;;;;;;;27.08;16.55;;;-2.40;99.90;;;;;;6095819;23;20402;-92
2023/04/06 04:01:20;;;;;;;27.77;15.70;;;-2.50;99.90;;;;;;6098971;23;20057;-92
2023/04/06 04:04:07;;;;;;;28.92;16.98;;;-2.60;99.90;;;;;;6108909;23;20053;-91
2023/04/06 04:06:58;;;;;;;26.20;16.00;;;-2.60;99.90;;;;;;6112097;23;20033;-91
2023/04/06 04:09:48;;;;;;;27.08;16.10;;;-2.60;99.90;;;;;;6112858;23;20110;-92
2023/04/06 04:12:39;;;;;;;30.88;16.75;;;-2.70;1.00;;;;;;6103035;23;20026;-91
2023/04/06 04:15:30;;;;;;;28.48;16.73;;;-2.70;1.00;;;;;;6115127;23;20014;-90
2023/04/06 04:18:20;;;;;;;28.70;15.95;;;-2.70;1.00;;;;;;6111894;23;20040;-91
2023/04/06 04:21:21;;;;;;;30.08;16.98;;;-2.70;1.00;;;;;;6100942;23;20037;-92
2023/04/06 04:24:15;;;;;;;25.48;13.23;;;-2.60;1.00;;;;;;6104628;22;20066;-91
2023/04/06 04:27:02;;;;;;;26.38;16.15;;;-2.50;1.00;;;;;;6109412;23;20086;-91
2023/04/06 04:30:33;;;;;;;28.48;17.05;;;-2.50;1.00;;;;;;6113549;22;20026;-90
2023/04/06 04:37:47;;;;;;;58.55;27.02;;;-2.40;1.00;;;;;;6090580;23;20442;-92
2023/04/06 04:40:49;;;;;;;80.88;34.97;;;-2.50;1.00;;;;;;6102500;23;20027;-90
2023/04/06 04:44:00;;;;;;;74.00;32.20;;;-2.60;1.00;;;;;;6112877;23;20038;-92
2023/04/06 04:48:11;;;;;;;33.97;18.50;;;-2.60;1.00;;;;;;6115283;23;20137;-92
2023/04/06 04:56:18;;;;;;;28.85;16.73;;;-2.40;1.00;;;;;;6018684;23;20042;-91
2023/04/06 05:03:43;;;;;;;31.92;16.95;;;-2.40;1.00;;;;;;5928134;24;20045;-91
2023/04/06 05:41:18;;;;;;;29.50;17.05;;;-1.50;1.00;;;;;;5931353;24;20074;-90
2023/04/06 05:44:04;;;;;;;29.95;17.00;;;-1.40;1.00;;;;;;5894188;23;20017;-89
2023/04/06 05:47:55;;;;;;;34.78;16.58;;;-1.40;1.00;;;;;;6008097;23;20038;-89
2023/04/06 05:54:41;;;;;;;31.63;18.35;;;-1.20;1.00;;;;;;6032240;23;20065;-90
2023/04/06 05:57:28;;;;;;;31.88;17.25;;;-1.10;1.00;;;;;;6085476;23;20031;-89
2023/04/06 06:00:16;;;;;;;27.23;17.05;;;-1.10;1.00;;;;;;6096869;23;20459;-90
2023/04/06 06:03:05;;;;;;;30.15;17.08;;;-1.10;1.00;;;;;;6110578;23;20034;-90
2023/04/06 06:06:13;;;;;;;31.42;17.33;;;-1.00;99.90;;;;;;6100772;23;20424;-90
2023/04/06 06:09:26;;;;;;;26.75;15.48;;;-0.80;99.90;;;;;;6101358;23;20023;-91
2023/04/06 06:29:53;;;;;;;;;;;;;;;;;;;;;
2023/04/06 06:54:57;;;;;;;;;;;;;;;;;;;;;
2023/04/06 07:10:16;;;;;;;25.15;13.20;;;3.60;99.90;;;;;;6140381;23;20025;-88
2023/04/06 07:13:06;;;;;;;22.52;12.15;;;3.80;96.10;;;;;;6168914;23;20092;-89
2023/04/06 07:16:08;;;;;;;17.88;11.30;;;4.10;82.90;;;;;;6136379;23;20029;-93
2023/04/06 07:18:56;;;;;;;16.65;11.30;;;4.50;72.40;;;;;;6098207;23;20026;-91
2023/04/06 07:21:49;;;;;;;20.95;12.52;;;4.70;47.70;;;;;;6092856;23;20022;-91
2023/04/06 07:24:40;;;;;;;17.20;10.88;;;4.80;30.20;;;;;;6099649;22;20038;-92
2023/04/06 07:27:28;;;;;;;16.90;11.23;;;4.90;22.40;;;;;;6093528;23;20049;-89
2023/04/06 07:30:18;;;;;;;16.33;10.75;;;5.00;15.70;;;;;;6093317;23;20022;-89
2023/04/06 07:33:09;;;;;;;19.75;11.63;;;5.00;11.30;;;;;;6094725;23;20037;-90
2023/04/06 07:35:58;;;;;;;15.55;10.90;;;5.40;8.50;;;;;;6094832;23;20410;-91
2023/04/06 07:38:48;;;;;;;11.57;7.93;;;5.70;3.80;;;;;;6101024;23;20060;-90
2023/04/06 07:41:39;;;;;;;15.20;9.77;;;5.90;1.00;;;;;;6095085;23;20038;-91
2023/04/06 07:44:30;;;;;;;13.88;9.20;;;6.20;1.00;;;;;;6092333;23;20026;-91
2023/04/06 07:47:18;;;;;;;13.38;9.38;;;6.40;1.00;;;;;;6093461;23;20084;-90
2023/04/06 07:50:44;;;;;;;15.23;9.77;;;6.60;1.00;;;;;;6096213;23;20043;-90
2023/04/06 07:53:32;;;;;;;13.07;9.18;;;6.70;1.00;;;;;;6102961;23;20085;-86
2023/04/06 07:56:21;;;;;;;16.40;9.50;;;6.70;1.00;;;;;;6097749;23;20030;-90
2023/04/06 07:59:21;;;;;;;16.00;9.50;;;7.20;1.00;;;;;;6093977;23;20041;-87
2023/04/06 08:02:12;;;;;;;15.98;9.02;;;7.40;1.00;;;;;;6094046;23;20030;-87
2023/04/06 08:04:59;;;;;;;15.73;9.60;;;7.70;1.00;;;;;;6092769;23;20036;-88
2023/04/06 08:07:47;;;;;;;15.98;9.68;;;8.00;1.00;;;;;;6090953;23;20102;-86
2023/04/06 08:10:41;;;;;;;14.82;9.57;;;8.30;1.00;;;;;;6093159;23;20101;-86
2023/04/06 08:13:29;;;;;;;18.38;9.68;;;8.60;1.00;;;;;;6094067;23;20132;-86
2023/04/06 08:16:16;;;;;;;12.30;8.75;;;9.20;1.00;;;;;;6099845;23;20026;-86
2023/04/06 08:19:25;;;;;;;16.13;9.85;;;9.40;1.00;;;;;;6112758;23;20028;-88
2023/04/06 08:22:22;;;;;;;17.52;9.73;;;9.60;1.00;;;;;;6103582;23;20022;-90
2023/04/06 08:25:38;;;;;;;15.07;9.07;;;10.30;1.00;;;;;;6055767;23;20022;-91
2023/04/06 08:28:53;;;;;;;17.83;8.38;;;10.70;1.00;;;;;;6081588;23;20160;-90
2023/04/06 08:32:40;;;;;;;13.25;9.50;;;11.60;1.00;;;;;;6132149;23;20014;-90
2023/04/06 08:36:07;;;;;;;12.48;9.32;;;11.60;1.00;;;;;;6007075;23;20035;-89
2023/04/06 08:38:55;;;;;;;11.95;8.75;;;12.00;1.00;;;;;;5987923;23;20039;-89
2023/04/06 08:41:47;;;;;;;14.80;8.55;;;12.20;1.00;;;;;;6086437;23;20427;-87
2023/04/06 08:44:41;;;;;;;17.00;9.68;;;13.30;1.00;;;;;;6000064;23;20067;-87
2023/04/06 08:47:29;;;;;;;14.30;9.80;;;14.10;1.00;;;;;;6010250;23;20103;-90
2023/04/06 08:50:18;;;;;;;13.75;9.50;;;13.60;1.00;;;;;;6010811;23;20031;-91
2023/04/06 08:53:15;;;;;;;14.05;9.05;;;13.00;1.00;;;;;;6068555;23;20026;-89
2023/04/06 08:56:05;;;;;;;14.93;9.05;;;13.20;1.00;;;;;;6090830;23;20022;-90
2023/04/06 08:59:09;;;;;;;12.82;8.70;;;13.60;1.00;;;;;;6093062;23;20105;-90
2023/04/06 09:02:17;;;;;;;15.02;9.32;;;13.50;1.00;;;;;;6093628;23;20058;-89
2023/04/06 09:05:21;;;;;;;13.85;9.10;;;14.30;1.00;;;;;;6092771;23;20053;-90
2023/04/06 09:08:19;;;;;;;11.65;8.73;;;14.60;1.00;;;;;;6096642;23;20032;-88
2023/04/06 09:11:20;;;;;;;13.70;8.48;;;14.50;1.00;;;;;;6105838;23;20654;-89
2023/04/06 09:14:07;;;;;;;12.70;7.78;;;14.90;1.00;;;;;;6082363;23;20036;-88
2023/04/06 09:16:55;;;;;;;7.88;6.45;;;15.20;1.00;;;;;;6102205;23;20068;-90
2023/04/06 09:19:49;;;;;;;8.57;6.50;;;16.00;1.00;;;;;;6099915;23;20046;-87
2023/04/06 09:22:38;;;;;;;9.13;7.30;;;16.10;1.00;;;;;;6097172;23;20022;-90
2023/04/06 09:25:31;;;;;;;10.88;6.85;;;14.90;1.00;;;;;;6100410;23;20030;-88
2023/04/06 09:28:29;;;;;;;12.57;7.30;;;14.00;1.00;;;;;;6095053;23;20100;-92
2023/04/06 09:35:55;;;;;;;9.85;6.25;;;15.90;1.00;;;;;;6127112;23;20477;-89
2023/04/06 09:39:15;;;;;;;8.00;6.00;;;16.60;1.00;;;;;;6112241;23;20030;-91
2023/04/06 09:42:26;;;;;;;8.82;5.85;;;17.10;1.00;;;;;;6117056;23;20022;-88
2023/04/06 09:45:21;;;;;;;10.05;6.20;;;16.00;1.00;;;;;;6091988;23;20058;-89
2023/04/06 09:48:44;;;;;;;10.02;6.20;;;14.60;1.00;;;;;;6092935;23;20037;-89
2023/04/06 09:52:18;;;;;;;7.47;5.35;;;15.30;1.00;;;;;;6094272;23;20059;-89
2023/04/06 09:55:09;;;;;;;10.77;6.72;;;16.40;1.00;;;;;;6093857;23;20129;-88
2023/04/06 09:58:12;;;;;;;10.13;6.20;;;15.60;1.00;;;;;;6092980;23;20715;-87
2023/04/06 10:01:03;;;;;;;;;;;16.30;1.00;;;;;;6098864;23;20088;-90
2023/04/06 10:04:14;;;;;;;7.47;5.63;;;17.20;1.00;;;;;;6094362;23;19922;-89
2023/04/06 10:07:03;;;;;;;6.80;6.03;;;17.40;1.00;;;;;;6093956;23;20332;-89
2023/04/06 10:09:54;;;;;;;9.60;6.30;;;17.80;1.00;;;;;;6093331;23;20026;-88
2023/04/06 10:12:45;;;;;;;9.90;6.20;;;18.00;1.00;;;;;;6093479;23;20030;-90
2023/04/06 10:15:48;;;;;;;7.57;6.28;;;17.60;1.00;;;;;;6077197;23;20078;-90
2023/04/06 10:18:39;;;;;;;10.43;7.18;;;17.00;1.00;;;;;;6092642;23;20041;-90
2023/04/06 10:21:31;;;;;;;8.45;6.25;;;17.40;1.00;;;;;;6094151;23;20109;-90
2023/04/06 10:24:20;;;;;;;10.45;6.65;;;17.50;1.00;;;;;;6094123;23;20053;-91
2023/04/06 10:27:10;;;;;;;7.85;5.93;;;17.30;1.00;;;;;;6094041;23;20022;-92
2023/04/06 10:34:39;;;;;;;10.45;7.20;;;19.00;1.00;;;;;;6155818;23;20013;-89
2023/04/06 10:38:01;;;;;;;8.82;6.28;;;17.60;1.00;;;;;;6155571;23;20029;-89
2023/04/06 10:40:51;;;;;;;12.32;6.53;;;18.30;1.00;;;;;;6114887;23;20078;-87
2023/04/06 10:43:41;;;;;;;10.05;7.55;;;19.10;1.00;;;;;;6110579;23;20058;-87
2023/04/06 10:46:36;;;;;;;8.88;6.97;;;19.90;1.00;;;;;;6095881;23;20084;-90
2023/04/06 10:49:29;;;;;;;10.50;6.20;;;18.80;1.00;;;;;;6094079;23;20027;-90
2023/04/06 10:52:22;;;;;;;8.90;6.20;;;19.50;1.00;;;;;;6097237;23;20042;-90
2023/04/06 10:55:17;;;;;;;8.93;6.38;;;19.90;1.00;;;;;;6094129;23;20035;-87
2023/04/06 10:58:08;;;;;;;9.55;6.65;;;20.20;1.00;;;;;;6099413;23;20045;-87
2023/04/06 11:00:56;;;;;;;10.57;6.80;;;19.40;1.00;;;;;;6096106;23;20027;-88
2023/04/06 11:03:52;;;;;;;8.15;6.65;;;19.30;1.00;;;;;;6097327;23;20034;-89
2023/04/06 11:07:03;;;;;;;9.45;7.07;;;19.80;1.00;;;;;;6100881;23;20031;-88
2023/04/06 11:09:50;;;;;;;10.70;7.07;;;19.30;1.00;;;;;;6109264;23;20092;-87
2023/04/06 11:13:00;;;;;;;9.68;7.00;;;18.60;1.00;;;;;;6109898;23;20057;-89
2023/04/06 11:15:48;;;;;;;7.85;5.95;;;19.30;1.00;;;;;;6116100;23;20030;-88
2023/04/06 11:18:37;;;;;;;9.75;6.00;;;19.60;1.00;;;;;;6114697;23;20033;-88
2023/04/06 11:21:49;;;;;;;7.53;6.15;;;19.80;1.00;;;;;;6108112;23;20079;-88
2023/04/06 11:24:36;;;;;;;8.90;6.90;;;20.70;1.00;;;;;;6107440;23;20050;-89
2023/04/06 11:27:34;;;;;;;8.75;6.32;;;20.30;1.00;;;;;;6099616;23;20105;-89
2023/04/06 11:30:23;;;;;;;9.05;6.60;;;19.90;1.00;;;;;;6097989;23;20039;-88
2023/04/06 11:33:30;;;;;;;9.40;6.70;;;19.40;1.00;;;;;;6093199;23;20049;-90
2023/04/06 11:36:29;;;;;;;9.05;6.63;;;20.00;1.00;;;;;;6093986;23;20030;-88
2023/04/06 11:39:25;;;;;;;9.15;5.97;;;19.50;1.00;;;;;;6093615;23;20034;-89
2023/04/06 11:42:31;;;;;;;10.00;6.95;;;20.80;1.00;;;;;;6094097;23;20111;-90
2023/04/06 11:45:26;;;;;;;8.45;5.88;;;21.30;1.00;;;;;;6092395;23;20031;-90
2023/04/06 11:48:27;;;;;;;8.75;6.47;;;21.80;1.00;;;;;;6093928;23;20041;-89
2023/04/06 11:51:26;;;;;;;8.25;6.38;;;21.90;1.00;;;;;;6092570;23;20026;-86
2023/04/06 11:54:47;;;;;;;8.68;6.25;;;22.00;1.00;;;;;;6093801;23;20022;-86
2023/04/06 11:57:39;;;;;;;7.88;6.13;;;22.10;1.00;;;;;;6092967;23;20041;-88
2023/04/06 12:00:31;;;;;;;8.50;6.78;;;21.40;1.00;;;;;;6095691;23;20027;-87
2023/04/06 12:03:39;;;;;;;10.18;6.53;;;21.10;1.00;;;;;;6098793;23;20057;-88
2023/04/06 12:14:51;;;;;;;;;;;;;;;;;;;;;
2023/04/06 12:18:09;;;;;;;;;;;;;;;;;;;;;
2023/04/06 12:21:16;;;;;;;10.27;7.75;;;19.10;1.00;;;;;;6108235;23;20028;-87
2023/04/06 12:24:12;;;;;;;11.82;6.93;;;17.70;1.00;;;;;;6101464;23;20054;-89
2023/04/06 12:27:21;;;;;;;11.43;7.45;;;18.20;1.00;;;;;;6095145;23;20699;-90
2023/04/06 12:30:12;;;;;;;8.18;6.07;;;18.00;1.00;;;;;;6097712;23;20102;-89
2023/04/06 12:33:01;;;;;;;7.88;5.43;;;16.90;1.00;;;;;;6093562;23;20034;-86
2023/04/06 12:39:50;;;;;;;9.80;4.65;;;17.60;1.00;;;;;;6091777;23;20283;-87
2023/04/06 12:47:04;;;;;;;8.45;5.50;;;20.00;1.00;;;;;;6008006;23;20418;-92
2023/04/06 12:50:46;;;;;;;7.07;4.95;;;21.40;1.00;;;;;;6007801;23;20143;-91
2023/04/06 12:53:35;;;;;;;6.72;5.22;;;22.70;1.00;;;;;;6043092;23;20042;-87
2023/04/06 12:57:15;;;;;;;6.63;5.10;;;21.90;1.00;;;;;;6015498;23;20031;-90
2023/04/06 13:00:14;;;;;;;7.90;5.43;;;22.30;1.00;;;;;;6007011;23;20028;-89
2023/04/06 13:03:13;;;;;;;22.73;13.45;;;22.30;1.00;;;;;;6013717;23;20083;-88
2023/04/06 13:06:28;;;;;;;5.05;4.40;;;23.30;1.00;;;;;;6016613;23;20115;-84
2023/04/06 13:09:39;;;;;;;7.18;5.05;;;22.70;1.00;;;;;;5933960;24;20065;-84
2023/04/06 13:12:30;;;;;;;5.03;4.18;;;22.00;1.00;;;;;;5925369;23;20037;-87
2023/04/06 13:15:19;;;;;;;6.37;5.13;;;20.70;1.00;;;;;;5914236;23;20088;-86
2023/04/06 13:18:07;;;;;;;6.03;4.70;;;20.00;1.00;;;;;;5926404;23;20025;-85
2023/04/06 13:20:56;;;;;;;8.10;4.72;;;19.40;1.00;;;;;;5909254;23;20025;-86
2023/04/06 13:23:47;;;;;;;7.20;5.07;;;17.80;1.00;;;;;;5907834;23;20049;-86
2023/04/06 13:26:36;;;;;;;9.65;5.50;;;16.90;1.00;;;;;;6001840;23;20032;-83
2023/04/06 13:29:23;;;;;;;7.13;5.30;;;16.50;1.00;;;;;;5986064;23;20040;-86
2023/04/06 13:32:51;;;;;;;9.38;5.40;;;15.80;1.00;;;;;;6005585;23;20023;-86
2023/04/06 13:35:48;;;;;;;7.63;5.20;;;15.90;1.00;;;;;;5989652;23;20357;-89
2023/04/06 13:38:50;;;;;;;7.20;4.65;;;16.10;1.00;;;;;;6008094;23;20031;-88
2023/04/06 13:45:55;;;;;;;7.53;5.40;;;17.20;1.00;;;;;;6006282;23;20221;-87
2023/04/06 13:48:47;;;;;;;7.15;4.90;;;16.50;1.00;;;;;;6033384;23;20022;-87
2023/04/06 13:51:41;;;;;;;9.15;5.65;;;17.20;1.00;;;;;;6094449;23;20041;-86
2023/04/06 13:54:39;;;;;;;9.48;6.35;;;17.40;1.00;;;;;;6093647;23;20330;-87
2023/04/06 13:57:41;;;;;;;6.90;5.20;;;17.20;1.00;;;;;;6095425;23;20315;-90
2023/04/06 14:01:06;;;;;;;9.13;5.53;;;17.50;1.00;;;;;;6093750;23;20041;-90
2023/04/06 14:03:55;;;;;;;8.93;6.45;;;18.70;1.00;;;;;;6094630;23;20027;-89
2023/04/06 14:06:46;;;;;;;9.80;5.55;;;18.30;1.00;;;;;;6092826;23;20026;-89
2023/04/06 14:09:34;;;;;;;8.02;4.93;;;19.20;1.00;;;;;;6093214;23;20033;-91
2023/04/06 14:13:00;;;;;;;;;;;;;;;;;;;;;
2023/04/06 14:17:14;;;;;;;;;;;;;;;;;;;;;
2023/04/06 14:21:32;;;;;;;7.30;5.47;;;21.20;1.00;;;;;;5924392;24;20029;-92
2023/04/06 14:24:23;;;;;;;7.80;5.80;;;21.90;1.00;;;;;;5936821;23;20249;-91
2023/04/06 14:35:30;;;;;;;8.23;6.10;;;22.10;1.00;;;;;;6011335;23;20011;-92
2023/04/06 14:38:49;;;;;;;12.15;6.03;;;19.70;1.00;;;;;;6010258;23;20015;-91
2023/04/06 14:41:47;;;;;;;10.70;5.97;;;17.90;1.00;;;;;;5989466;23;20031;-89
2023/04/06 14:44:44;;;;;;;9.18;5.88;;;16.40;1.00;;;;;;5990301;23;20100;-90
2023/04/06 14:47:37;;;;;;;10.60;6.80;;;14.80;1.00;;;;;;6008030;23;20036;-92
2023/04/06 14:50:30;;;;;;;11.48;5.78;;;14.40;1.00;;;;;;6029920;23;20104;-90
2023/04/06 14:53:26;;;;;;;10.13;6.15;;;14.30;1.00;;;;;;6094439;23;20026;-92
2023/04/06 14:56:23;;;;;;;10.00;6.80;;;14.10;1.00;;;;;;6095522;23;20027;-93
2023/04/06 14:59:14;;;;;;;12.52;6.20;;;13.70;1.00;;;;;;6096624;23;20034;-91
2023/04/06 15:02:05;;;;;;;10.50;6.93;;;13.30;1.00;;;;;;6100118;23;20027;-91
2023/04/06 15:04:52;;;;;;;12.13;6.95;;;13.40;1.00;;;;;;6095389;23;20088;-90
2023/04/06 15:11:52;;;;;;;10.70;6.25;;;13.80;1.00;;;;;;6061324;23;20028;-91
2023/04/06 15:19:57;;;;;;;;;;;;;;;;;;;;;
2023/04/06 15:31:34;;;;;;;11.55;7.10;;;12.90;1.00;;;;;;6165181;23;20144;-90
2023/04/06 15:47:39;;;;;;;11.23;6.60;;;12.70;1.00;;;;;;6073282;23;20065;-92
2023/04/06 15:54:46;;;;;;;12.63;6.03;;;12.30;1.00;;;;;;6159075;23;20014;-91
2023/04/06 16:07:01;;;;;;;8.23;5.93;;;12.40;1.00;;;;;;5964127;23;20107;-91
2023/04/06 16:10:05;;;;;;;9.38;5.80;;;12.40;1.00;;;;;;5993309;24;20080;-92
2023/04/06 16:22:10;;;;;;;13.88;6.90;;;12.00;1.00;;;;;;5961251;24;20188;-94
2023/04/06 16:29:03;;;;;;;10.73;6.65;;;11.90;1.00;;;;;;6009879;23;20093;-92
2023/04/06 16:41:11;;;;;;;12.60;7.18;;;11.60;1.00;;;;;;6013293;23;20024;-89
2023/04/06 16:49:18;;;;;;;;;;;;;;;;;;;;;
2023/04/06 17:05:38;;;;;;;;;;;;;;;;;;;;;
2023/04/06 17:12:30;;;;;;;12.98;7.97;;;10.70;1.00;;;;;;5911587;24;20096;-89
2023/04/06 18:23:11;;;;;;;9.93;5.35;;;9.30;1.00;;;;;;5946390;23;2480154;-90
2023/04/06 18:26:01;;;;;;;6.38;4.40;;;9.30;1.00;;;;;;6101457;23;20021;-89
2023/04/06 18:28:48;;;;;;;7.25;3.90;;;9.30;1.00;;;;;;6207764;23;20020;-92
2023/04/06 18:32:10;;;;;;;5.70;3.33;;;9.20;1.00;;;;;;6211308;23;20035;-92
2023/04/06 18:35:10;;;;;;;3.83;2.90;;;9.20;1.00;;;;;;6228540;23;20454;-89
2023/04/06 18:38:02;;;;;;;4.35;3.05;;;9.20;1.00;;;;;;6204185;23;20541;-89
2023/04/06 18:41:19;;;;;;;5.30;3.58;;;9.10;1.00;;;;;;6205460;23;20103;-91
2023/04/06 18:44:20;;;;;;;7.03;3.15;;;9.10;1.00;;;;;;6200007;23;20430;-88
2023/04/06 18:47:57;;;;;;;5.07;3.50;;;9.10;1.00;;;;;;6204176;23;20024;-91
2023/04/06 18:50:58;;;;;;;3.88;2.78;;;9.00;1.00;;;;;;6200223;23;20047;-90
2023/04/06 18:54:33;;;;;;;6.13;3.60;;;9.00;1.00;;;;;;6226544;23;20427;-92
2023/04/06 18:57:34;;;;;;;7.13;4.38;;;8.90;1.00;;;;;;6104468;23;20026;-90
2023/04/06 19:01:02;;;;;;;6.65;4.22;;;8.90;1.00;;;;;;6212811;22;20024;-91
2023/04/06 19:03:51;;;;;;;;;;;8.80;1.00;;;;;;6219090;23;20020;-89
2023/04/06 19:07:29;;;;;;;6.60;4.45;;;8.80;1.00;;;;;;6214626;23;19916;-90
2023/04/06 19:10:55;;;;;;;9.68;4.63;;;8.70;1.00;;;;;;6214747;23;20020;-91
2023/04/06 19:13:49;;;;;;;6.80;4.18;;;8.70;1.00;;;;;;6211025;23;20450;-91
2023/04/06 19:16:39;;;;;;;8.40;4.72;;;8.60;1.00;;;;;;6221472;23;20099;-92
2023/04/06 19:19:27;;;;;;;6.05;3.90;;;8.60;1.00;;;;;;6223454;23;20114;-90
2023/04/06 19:22:37;;;;;;;6.72;3.53;;;8.60;1.00;;;;;;6219076;23;20020;-88
2023/04/06 19:25:25;;;;;;;4.88;3.95;;;8.50;1.00;;;;;;6222047;23;20025;-89
2023/04/06 19:28:22;;;;;;;5.57;3.60;;;8.40;1.00;;;;;;6196374;23;20400;-89
2023/04/06 19:31:12;;;;;;;5.28;3.92;;;8.50;1.00;;;;;;6219119;23;20020;-87
2023/04/06 19:34:23;;;;;;;4.82;3.55;;;8.50;1.00;;;;;;6219209;23;20035;-91
2023/04/06 19:37:19;;;;;;;9.27;3.65;;;8.50;1.00;;;;;;6181540;23;20032;-91
2023/04/06 19:40:21;;;;;;;8.20;5.03;;;8.40;1.00;;;;;;6202526;23;20043;-90
2023/04/06 19:43:16;;;;;;;6.75;4.50;;;8.30;1.00;;;;;;6197049;23;20047;-89
2023/04/06 19:46:07;;;;;;;11.00;5.18;;;8.30;1.00;;;;;;6196430;23;20048;-88
2023/04/06 19:48:55;;;;;;;9.90;6.45;;;8.30;1.00;;;;;;6196792;23;20103;-89
2023/04/06 19:51:46;;;;;;;9.50;5.90;;;8.20;1.00;;;;;;6196130;23;20031;-90
2023/04/06 19:54:39;;;;;;;7.95;6.00;;;8.10;1.00;;;;;;6219055;23;20031;-89
2023/04/06 19:57:31;;;;;;;8.52;5.95;;;8.10;1.00;;;;;;6204762;23;20020;-87
2023/04/06 20:00:40;;;;;;;11.18;6.20;;;7.90;1.00;;;;;;6225852;23;20055;-88
2023/04/06 20:03:36;;;;;;;8.57;6.13;;;7.70;1.00;;;;;;6211025;23;20021;-90
2023/04/06 20:06:28;;;;;;;8.80;6.68;;;7.50;1.00;;;;;;6207719;23;20024;-90
2023/04/06 20:09:27;;;;;;;;;;;;;;;;;;;;;
2023/04/06 20:12:34;;;;;;;13.88;7.20;;;7.30;1.00;;;;;;6232165;23;20020;-91
2023/04/06 20:15:24;;;;;;;11.73;6.65;;;7.10;1.00;;;;;;6230236;23;20029;-91
2023/04/06 20:18:26;;;;;;;9.43;6.90;;;7.00;1.00;;;;;;6198071;23;20082;-91
2023/04/06 20:21:19;;;;;;;9.93;6.47;;;7.00;1.00;;;;;;6219033;23;20025;-92
2023/04/06 20:24:10;;;;;;;10.02;7.10;;;6.90;1.00;;;;;;6215687;23;20020;-90
2023/04/06 20:27:08;;;;;;;;;;;;;;;;;;;;;
2023/04/06 20:30:09;;;;;;;11.35;7.65;;;6.80;1.00;;;;;;6218235;23;20035;-90
2023/04/06 20:33:19;;;;;;;10.52;7.00;;;6.70;1.00;;;;;;6219264;23;20096;-89